sensor_id;sensor_type;location;lat;lon;timestamp;temperature;humidity
11591;DHT22;5851;54.050;9.974;2024-01-30T00:00:04;6.10;99.90
11591;DHT22;5851;54.050;9.974;2024-01-30T00:02:32;6.10;99.90
11591;DHT22;5851;54.050;9.974;2024-01-30T00:04:58;6.10;99.90
11591;DHT22;5851;54.050;9.974;2024-01-30T00:07:25;6.10;99.90
11591;DHT22;5851;54.050;9.974;2024-01-30T00:09:52;6.10;99.90
11591;DHT22;5851;54.050;9.974;2024-01-30T00:12:20;6.10;99.90
11591;DHT22;5851;54.050;9.974;2024-01-30T00:14:47;6.10;99.90
11591;DHT22;5851;54.050;9.974;2024-01-30T00:17:15;6.10;99.90
11591;DHT22;5851;54.050;9.974;2024-01-30T00:19:42;6.10;99.90
11591;DHT22;5851;54.050;9.974;2024-01-30T00:22:09;6.10;99.90
11591;DHT22;5851;54.050;9.974;2024-01-30T00:24:36;6.10;99.90
11591;DHT22;5851;54.050;9.974;2024-01-30T00:27:03;6.10;99.90
11591;DHT22;5851;54.050;9.974;2024-01-30T00:29:30;6.20;99.90
11591;DHT22;5851;54.050;9.974;2024-01-30T00:31:59;6.10;99.90
11591;DHT22;5851;54.050;9.974;2024-01-30T00:34:27;6.10;99.90
11591;DHT22;5851;54.050;9.974;2024-01-30T00:36:54;6.10;99.90
11591;DHT22;5851;54.050;9.974;2024-01-30T00:39:21;6.10;99.90
11591;DHT22;5851;54.050;9.974;2024-01-30T00:41:48;6.10;99.90
11591;DHT22;5851;54.050;9.974;2024-01-30T00:44:15;6.20;99.90
11591;DHT22;5851;54.050;9.974;2024-01-30T00:46:42;6.20;99.90
11591;DHT22;5851;54.050;9.974;2024-01-30T00:49:10;6.10;99.90
11591;DHT22;5851;54.050;9.974;2024-01-30T00:51:39;6.10;99.90
11591;DHT22;5851;54.050;9.974;2024-01-30T00:54:05;6.10;99.90
11591;DHT22;5851;54.050;9.974;2024-01-30T00:56:33;6.20;99.90
11591;DHT22;5851;54.050;9.974;2024-01-30T00:59:00;6.10;99.90
11591;DHT22;5851;54.050;9.974;2024-01-30T01:01:27;6.10;99.90
11591;DHT22;5851;54.050;9.974;2024-01-30T01:03:54;6.10;99.90
11591;DHT22;5851;54.050;9.974;2024-01-30T01:06:21;6.10;99.90
11591;DHT22;5851;54.050;9.974;2024-01-30T01:08:49;6.10;99.90
11591;DHT22;5851;54.050;9.974;2024-01-30T01:11:16;6.10;99.90
11591;DHT22;5851;54.050;9.974;2024-01-30T01:13:43;6.10;99.90
11591;DHT22;5851;54.050;9.974;2024-01-30T01:16:10;6.10;99.90
11591;DHT22;5851;54.050;9.974;2024-01-30T01:18:37;6.10;99.90
11591;DHT22;5851;54.050;9.974;2024-01-30T01:21:04;6.10;99.90
11591;DHT22;5851;54.050;9.974;2024-01-30T01:23:31;6.10;99.90
11591;DHT22;5851;54.050;9.974;2024-01-30T01:25:59;6.10;99.90
11591;DHT22;5851;54.050;9.974;2024-01-30T01:28:26;6.10;99.90
11591;DHT22;5851;54.050;9.974;2024-01-30T01:30:53;6.10;99.90
11591;DHT22;5851;54.050;9.974;2024-01-30T01:33:24;6.10;99.90
11591;DHT22;5851;54.050;9.974;2024-01-30T01:35:51;6.10;99.90
11591;DHT22;5851;54.050;9.974;2024-01-30T01:38:19;6.10;99.90
11591;DHT22;5851;54.050;9.974;2024-01-30T01:40:44;6.10;99.90
11591;DHT22;5851;54.050;9.974;2024-01-30T01:43:13;6.10;99.90
11591;DHT22;5851;54.050;9.974;2024-01-30T01:45:40;6.10;99.90
11591;DHT22;5851;54.050;9.974;2024-01-30T01:48:07;6.20;99.90
11591;DHT22;5851;54.050;9.974;2024-01-30T01:50:35;6.10;99.90
11591;DHT22;5851;54.050;9.974;2024-01-30T01:53:03;6.10;99.90
11591;DHT22;5851;54.050;9.974;2024-01-30T01:55:31;6.10;99.90
11591;DHT22;5851;54.050;9.974;2024-01-30T01:57:59;6.10;99.90
11591;DHT22;5851;54.050;9.974;2024-01-30T02:00:27;6.10;99.90
11591;DHT22;5851;54.050;9.974;2024-01-30T02:02:55;6.10;99.90
11591;DHT22;5851;54.050;9.974;2024-01-30T02:05:23;6.10;99.90
11591;DHT22;5851;54.050;9.974;2024-01-30T02:07:50;6.10;99.90
11591;DHT22;5851;54.050;9.974;2024-01-30T02:10:18;6.10;99.90
11591;DHT22;5851;54.050;9.974;2024-01-30T02:12:44;6.10;99.90
11591;DHT22;5851;54.050;9.974;2024-01-30T02:15:13;6.10;99.90
11591;DHT22;5851;54.050;9.974;2024-01-30T02:17:42;6.10;99.90
11591;DHT22;5851;54.050;9.974;2024-01-30T02:20:10;6.10;99.90
11591;DHT22;5851;54.050;9.974;2024-01-30T02:22:39;6.10;99.90
11591;DHT22;5851;54.050;9.974;2024-01-30T02:25:08;6.10;99.90
11591;DHT22;5851;54.050;9.974;2024-01-30T02:27:35;6.10;99.90
11591;DHT22;5851;54.050;9.974;2024-01-30T02:30:02;6.10;99.90
11591;DHT22;5851;54.050;9.974;2024-01-30T02:32:29;6.10;99.90
11591;DHT22;5851;54.050;9.974;2024-01-30T02:34:56;6.10;99.90
11591;DHT22;5851;54.050;9.974;2024-01-30T02:37:23;6.00;99.90
11591;DHT22;5851;54.050;9.974;2024-01-30T02:39:51;6.00;99.90
11591;DHT22;5851;54.050;9.974;2024-01-30T02:42:18;6.00;99.90
11591;DHT22;5851;54.050;9.974;2024-01-30T02:44:45;6.00;99.90
11591;DHT22;5851;54.050;9.974;2024-01-30T02:47:12;6.00;99.90
11591;DHT22;5851;54.050;9.974;2024-01-30T02:49:39;6.00;99.90
11591;DHT22;5851;54.050;9.974;2024-01-30T02:52:06;5.90;99.90
11591;DHT22;5851;54.050;9.974;2024-01-30T02:54:33;5.90;99.90
11591;DHT22;5851;54.050;9.974;2024-01-30T02:57:01;6.00;99.90
11591;DHT22;5851;54.050;9.974;2024-01-30T02:59:28;6.00;99.90
11591;DHT22;5851;54.050;9.974;2024-01-30T03:01:55;5.90;99.90
11591;DHT22;5851;54.050;9.974;2024-01-30T03:04:22;6.00;99.90
11591;DHT22;5851;54.050;9.974;2024-01-30T03:06:49;6.00;99.90
11591;DHT22;5851;54.050;9.974;2024-01-30T03:09:16;6.00;99.90
11591;DHT22;5851;54.050;9.974;2024-01-30T03:11:43;6.00;99.90
11591;DHT22;5851;54.050;9.974;2024-01-30T03:14:12;6.00;99.90
11591;DHT22;5851;54.050;9.974;2024-01-30T03:16:39;6.00;99.90
11591;DHT22;5851;54.050;9.974;2024-01-30T03:19:06;6.00;99.90
11591;DHT22;5851;54.050;9.974;2024-01-30T03:21:34;5.90;99.90
11591;DHT22;5851;54.050;9.974;2024-01-30T03:24:01;5.90;99.90
11591;DHT22;5851;54.050;9.974;2024-01-30T03:26:28;5.90;99.90
11591;DHT22;5851;54.050;9.974;2024-01-30T03:28:55;5.90;99.90
11591;DHT22;5851;54.050;9.974;2024-01-30T03:31:23;5.90;99.90
11591;DHT22;5851;54.050;9.974;2024-01-30T03:33:50;5.80;99.90
11591;DHT22;5851;54.050;9.974;2024-01-30T03:36:17;5.90;99.90
11591;DHT22;5851;54.050;9.974;2024-01-30T03:38:44;5.90;99.90
11591;DHT22;5851;54.050;9.974;2024-01-30T03:41:11;5.90;99.90
11591;DHT22;5851;54.050;9.974;2024-01-30T03:43:38;5.80;99.90
11591;DHT22;5851;54.050;9.974;2024-01-30T03:46:05;5.80;99.90
11591;DHT22;5851;54.050;9.974;2024-01-30T03:48:33;5.80;99.90
11591;DHT22;5851;54.050;9.974;2024-01-30T03:51:00;5.80;99.90
11591;DHT22;5851;54.050;9.974;2024-01-30T03:53:27;5.70;99.90
11591;DHT22;5851;54.050;9.974;2024-01-30T03:55:54;5.70;99.90
11591;DHT22;5851;54.050;9.974;2024-01-30T03:58:21;5.70;99.90
11591;DHT22;5851;54.050;9.974;2024-01-30T04:00:48;5.70;99.90
11591;DHT22;5851;54.050;9.974;2024-01-30T04:03:15;5.60;99.90
11591;DHT22;5851;54.050;9.974;2024-01-30T04:05:43;5.60;99.90
11591;DHT22;5851;54.050;9.974;2024-01-30T04:08:10;5.60;99.90
11591;DHT22;5851;54.050;9.974;2024-01-30T04:10:37;5.60;99.90
11591;DHT22;5851;54.050;9.974;2024-01-30T04:13:04;5.60;99.90
11591;DHT22;5851;54.050;9.974;2024-01-30T04:15:31;5.50;99.90
11591;DHT22;5851;54.050;9.974;2024-01-30T04:17:58;5.50;99.90
11591;DHT22;5851;54.050;9.974;2024-01-30T04:20:25;5.50;99.90
11591;DHT22;5851;54.050;9.974;2024-01-30T04:22:53;5.50;99.90
11591;DHT22;5851;54.050;9.974;2024-01-30T04:25:20;5.50;99.90
11591;DHT22;5851;54.050;9.974;2024-01-30T04:27:47;5.50;99.90
11591;DHT22;5851;54.050;9.974;2024-01-30T04:30:15;5.50;99.90
11591;DHT22;5851;54.050;9.974;2024-01-30T04:32:43;5.40;99.90
11591;DHT22;5851;54.050;9.974;2024-01-30T04:35:10;5.40;99.90
11591;DHT22;5851;54.050;9.974;2024-01-30T04:37:37;5.40;99.90
11591;DHT22;5851;54.050;9.974;2024-01-30T04:40:07;5.40;99.90
11591;DHT22;5851;54.050;9.974;2024-01-30T04:42:35;5.40;99.90
11591;DHT22;5851;54.050;9.974;2024-01-30T04:45:02;5.30;99.90
11591;DHT22;5851;54.050;9.974;2024-01-30T04:47:29;5.40;99.90
11591;DHT22;5851;54.050;9.974;2024-01-30T04:49:56;5.30;99.90
11591;DHT22;5851;54.050;9.974;2024-01-30T04:52:23;5.30;99.90
11591;DHT22;5851;54.050;9.974;2024-01-30T04:54:50;5.30;99.90
11591;DHT22;5851;54.050;9.974;2024-01-30T04:57:18;5.40;99.90
11591;DHT22;5851;54.050;9.974;2024-01-30T04:59:45;5.30;99.90
11591;DHT22;5851;54.050;9.974;2024-01-30T05:02:12;5.40;99.90
11591;DHT22;5851;54.050;9.974;2024-01-30T05:04:40;5.40;99.90
11591;DHT22;5851;54.050;9.974;2024-01-30T05:07:07;5.40;99.90
11591;DHT22;5851;54.050;9.974;2024-01-30T05:09:34;5.40;99.90
11591;DHT22;5851;54.050;9.974;2024-01-30T05:12:01;5.40;99.90
11591;DHT22;5851;54.050;9.974;2024-01-30T05:14:30;5.40;99.90
11591;DHT22;5851;54.050;9.974;2024-01-30T05:16:57;5.40;99.90
11591;DHT22;5851;54.050;9.974;2024-01-30T05:19:23;5.40;99.90
11591;DHT22;5851;54.050;9.974;2024-01-30T05:21:50;5.40;99.90
11591;DHT22;5851;54.050;9.974;2024-01-30T05:24:17;5.30;99.90
11591;DHT22;5851;54.050;9.974;2024-01-30T05:26:44;5.30;99.90
11591;DHT22;5851;54.050;9.974;2024-01-30T05:29:13;5.30;99.90
11591;DHT22;5851;54.050;9.974;2024-01-30T05:31:41;5.40;99.90
11591;DHT22;5851;54.050;9.974;2024-01-30T05:34:08;5.40;99.90
11591;DHT22;5851;54.050;9.974;2024-01-30T05:36:35;5.30;99.90
11591;DHT22;5851;54.050;9.974;2024-01-30T05:39:02;5.20;99.90
11591;DHT22;5851;54.050;9.974;2024-01-30T05:41:29;5.20;99.90
11591;DHT22;5851;54.050;9.974;2024-01-30T05:43:56;5.30;99.90
11591;DHT22;5851;54.050;9.974;2024-01-30T05:46:23;5.30;99.90
11591;DHT22;5851;54.050;9.974;2024-01-30T05:48:51;5.30;99.90
11591;DHT22;5851;54.050;9.974;2024-01-30T05:51:18;5.40;99.90
11591;DHT22;5851;54.050;9.974;2024-01-30T05:53:45;5.30;99.90
11591;DHT22;5851;54.050;9.974;2024-01-30T05:56:12;5.30;99.90
11591;DHT22;5851;54.050;9.974;2024-01-30T05:58:39;5.30;99.90
11591;DHT22;5851;54.050;9.974;2024-01-30T06:01:07;5.30;99.90
11591;DHT22;5851;54.050;9.974;2024-01-30T06:03:35;5.30;99.90
11591;DHT22;5851;54.050;9.974;2024-01-30T06:06:03;5.30;99.90
11591;DHT22;5851;54.050;9.974;2024-01-30T06:08:30;5.20;99.90
11591;DHT22;5851;54.050;9.974;2024-01-30T06:10:57;5.20;99.90
11591;DHT22;5851;54.050;9.974;2024-01-30T06:13:24;5.20;99.90
11591;DHT22;5851;54.050;9.974;2024-01-30T06:15:51;5.20;99.90
11591;DHT22;5851;54.050;9.974;2024-01-30T06:18:18;5.20;99.90
11591;DHT22;5851;54.050;9.974;2024-01-30T06:20:46;5.30;99.90
11591;DHT22;5851;54.050;9.974;2024-01-30T06:23:14;5.30;99.90
11591;DHT22;5851;54.050;9.974;2024-01-30T06:25:41;5.30;99.90
11591;DHT22;5851;54.050;9.974;2024-01-30T06:28:08;5.40;99.90
11591;DHT22;5851;54.050;9.974;2024-01-30T06:30:35;5.40;99.90
11591;DHT22;5851;54.050;9.974;2024-01-30T06:33:02;5.40;99.90
11591;DHT22;5851;54.050;9.974;2024-01-30T06:35:29;5.40;99.90
11591;DHT22;5851;54.050;9.974;2024-01-30T06:37:56;5.30;99.90
11591;DHT22;5851;54.050;9.974;2024-01-30T06:40:24;5.20;99.90
11591;DHT22;5851;54.050;9.974;2024-01-30T06:42:51;5.30;99.90
11591;DHT22;5851;54.050;9.974;2024-01-30T06:45:18;5.30;99.90
11591;DHT22;5851;54.050;9.974;2024-01-30T06:47:45;5.30;99.90
11591;DHT22;5851;54.050;9.974;2024-01-30T06:50:12;5.30;99.90
11591;DHT22;5851;54.050;9.974;2024-01-30T06:52:39;5.40;99.90
11591;DHT22;5851;54.050;9.974;2024-01-30T06:55:06;5.40;99.90
11591;DHT22;5851;54.050;9.974;2024-01-30T06:57:35;5.40;99.90
11591;DHT22;5851;54.050;9.974;2024-01-30T07:00:02;5.30;99.90
11591;DHT22;5851;54.050;9.974;2024-01-30T07:02:29;5.40;99.90
11591;DHT22;5851;54.050;9.974;2024-01-30T07:04:56;5.30;99.90
11591;DHT22;5851;54.050;9.974;2024-01-30T07:07:23;5.30;99.90
11591;DHT22;5851;54.050;9.974;2024-01-30T07:09:50;5.30;99.90
11591;DHT22;5851;54.050;9.974;2024-01-30T07:12:22;5.20;99.90
11591;DHT22;5851;54.050;9.974;2024-01-30T07:14:51;5.30;99.90
11591;DHT22;5851;54.050;9.974;2024-01-30T07:17:18;5.30;99.90
11591;DHT22;5851;54.050;9.974;2024-01-30T07:19:45;5.40;99.90
11591;DHT22;5851;54.050;9.974;2024-01-30T07:22:12;5.40;99.90
11591;DHT22;5851;54.050;9.974;2024-01-30T07:24:42;5.40;99.90
11591;DHT22;5851;54.050;9.974;2024-01-30T07:27:12;5.40;99.90
11591;DHT22;5851;54.050;9.974;2024-01-30T07:29:40;5.30;99.90
11591;DHT22;5851;54.050;9.974;2024-01-30T07:32:08;5.30;99.90
11591;DHT22;5851;54.050;9.974;2024-01-30T07:34:35;5.40;99.90
11591;DHT22;5851;54.050;9.974;2024-01-30T07:37:02;5.40;99.90
11591;DHT22;5851;54.050;9.974;2024-01-30T07:39:29;5.40;99.90
11591;DHT22;5851;54.050;9.974;2024-01-30T07:41:56;5.30;99.90
11591;DHT22;5851;54.050;9.974;2024-01-30T07:44:23;5.30;99.90
11591;DHT22;5851;54.050;9.974;2024-01-30T07:46:50;5.30;99.90
11591;DHT22;5851;54.050;9.974;2024-01-30T07:49:18;5.40;99.90
11591;DHT22;5851;54.050;9.974;2024-01-30T07:51:45;5.40;99.90
11591;DHT22;5851;54.050;9.974;2024-01-30T07:54:12;5.40;99.90
11591;DHT22;5851;54.050;9.974;2024-01-30T07:56:39;5.30;99.90
11591;DHT22;5851;54.050;9.974;2024-01-30T07:59:09;5.40;99.90
11591;DHT22;5851;54.050;9.974;2024-01-30T08:01:36;5.40;99.90
11591;DHT22;5851;54.050;9.974;2024-01-30T08:04:04;5.50;99.90
11591;DHT22;5851;54.050;9.974;2024-01-30T08:06:32;5.40;99.90
11591;DHT22;5851;54.050;9.974;2024-01-30T08:08:59;5.40;99.90
11591;DHT22;5851;54.050;9.974;2024-01-30T08:11:26;5.50;99.90
11591;DHT22;5851;54.050;9.974;2024-01-30T08:13:55;5.50;99.90
11591;DHT22;5851;54.050;9.974;2024-01-30T08:16:22;5.50;99.90
11591;DHT22;5851;54.050;9.974;2024-01-30T08:18:49;5.50;99.90
11591;DHT22;5851;54.050;9.974;2024-01-30T08:21:16;5.50;99.90
11591;DHT22;5851;54.050;9.974;2024-01-30T08:23:44;5.50;99.90
11591;DHT22;5851;54.050;9.974;2024-01-30T08:26:11;5.50;99.90
11591;DHT22;5851;54.050;9.974;2024-01-30T08:28:38;5.50;99.90
11591;DHT22;5851;54.050;9.974;2024-01-30T08:31:05;5.50;99.90
11591;DHT22;5851;54.050;9.974;2024-01-30T08:33:32;5.60;99.90
11591;DHT22;5851;54.050;9.974;2024-01-30T08:35:59;5.60;99.90
11591;DHT22;5851;54.050;9.974;2024-01-30T08:38:26;5.60;99.90
11591;DHT22;5851;54.050;9.974;2024-01-30T08:40:55;5.60;99.90
11591;DHT22;5851;54.050;9.974;2024-01-30T08:43:21;5.70;99.90
11591;DHT22;5851;54.050;9.974;2024-01-30T08:45:48;5.70;99.90
11591;DHT22;5851;54.050;9.974;2024-01-30T08:48:15;5.80;99.90
11591;DHT22;5851;54.050;9.974;2024-01-30T08:50:43;5.80;99.90
11591;DHT22;5851;54.050;9.974;2024-01-30T08:53:10;5.80;99.90
11591;DHT22;5851;54.050;9.974;2024-01-30T08:55:37;5.80;99.90
11591;DHT22;5851;54.050;9.974;2024-01-30T08:58:06;5.90;99.90
11591;DHT22;5851;54.050;9.974;2024-01-30T09:00:33;5.90;99.90
11591;DHT22;5851;54.050;9.974;2024-01-30T09:03:00;6.00;99.90
11591;DHT22;5851;54.050;9.974;2024-01-30T09:05:27;5.90;99.90
11591;DHT22;5851;54.050;9.974;2024-01-30T09:07:54;6.00;99.90
11591;DHT22;5851;54.050;9.974;2024-01-30T09:10:21;6.10;99.90
11591;DHT22;5851;54.050;9.974;2024-01-30T09:12:48;6.10;99.90
11591;DHT22;5851;54.050;9.974;2024-01-30T09:15:17;6.10;99.90
11591;DHT22;5851;54.050;9.974;2024-01-30T09:17:44;6.10;99.90
11591;DHT22;5851;54.050;9.974;2024-01-30T09:20:11;6.10;99.90
11591;DHT22;5851;54.050;9.974;2024-01-30T09:22:38;6.10;99.90
11591;DHT22;5851;54.050;9.974;2024-01-30T09:25:05;6.10;99.90
11591;DHT22;5851;54.050;9.974;2024-01-30T09:27:32;6.10;99.90
11591;DHT22;5851;54.050;9.974;2024-01-30T09:29:59;6.20;99.90
11591;DHT22;5851;54.050;9.974;2024-01-30T09:32:27;6.20;99.90
11591;DHT22;5851;54.050;9.974;2024-01-30T09:34:54;6.20;99.90
11591;DHT22;5851;54.050;9.974;2024-01-30T09:37:21;6.20;99.90
11591;DHT22;5851;54.050;9.974;2024-01-30T09:39:48;6.20;99.90
11591;DHT22;5851;54.050;9.974;2024-01-30T09:42:21;6.20;99.90
11591;DHT22;5851;54.050;9.974;2024-01-30T09:44:53;6.20;99.90
11591;DHT22;5851;54.050;9.974;2024-01-30T09:47:20;6.30;99.90
11591;DHT22;5851;54.050;9.974;2024-01-30T09:49:49;6.30;99.90
11591;DHT22;5851;54.050;9.974;2024-01-30T09:52:17;6.30;99.90
11591;DHT22;5851;54.050;9.974;2024-01-30T09:54:45;6.30;99.90
11591;DHT22;5851;54.050;9.974;2024-01-30T09:57:12;6.40;99.90
11591;DHT22;5851;54.050;9.974;2024-01-30T09:59:41;6.40;99.90
11591;DHT22;5851;54.050;9.974;2024-01-30T10:02:09;6.40;99.90
11591;DHT22;5851;54.050;9.974;2024-01-30T10:04:36;6.40;99.90
11591;DHT22;5851;54.050;9.974;2024-01-30T10:07:04;6.40;99.90
11591;DHT22;5851;54.050;9.974;2024-01-30T10:09:32;6.50;99.90
11591;DHT22;5851;54.050;9.974;2024-01-30T10:12:00;6.50;99.90
11591;DHT22;5851;54.050;9.974;2024-01-30T10:14:29;6.50;99.90
11591;DHT22;5851;54.050;9.974;2024-01-30T10:16:57;6.50;99.90
11591;DHT22;5851;54.050;9.974;2024-01-30T10:19:24;6.50;99.90
11591;DHT22;5851;54.050;9.974;2024-01-30T10:21:52;6.60;99.90
11591;DHT22;5851;54.050;9.974;2024-01-30T10:24:25;6.70;99.90
11591;DHT22;5851;54.050;9.974;2024-01-30T10:26:53;6.70;99.90
11591;DHT22;5851;54.050;9.974;2024-01-30T10:29:20;6.80;99.90
11591;DHT22;5851;54.050;9.974;2024-01-30T10:31:57;6.80;99.90
11591;DHT22;5851;54.050;9.974;2024-01-30T10:34:24;6.80;99.90
11591;DHT22;5851;54.050;9.974;2024-01-30T10:37:01;6.90;99.90
11591;DHT22;5851;54.050;9.974;2024-01-30T10:39:37;6.90;99.90
11591;DHT22;5851;54.050;9.974;2024-01-30T10:42:05;7.00;99.90
11591;DHT22;5851;54.050;9.974;2024-01-30T10:44:43;7.00;99.90
11591;DHT22;5851;54.050;9.974;2024-01-30T10:47:12;7.00;99.90
11591;DHT22;5851;54.050;9.974;2024-01-30T10:49:41;7.00;99.90
11591;DHT22;5851;54.050;9.974;2024-01-30T10:52:09;7.00;99.90
11591;DHT22;5851;54.050;9.974;2024-01-30T10:54:40;7.00;99.90
11591;DHT22;5851;54.050;9.974;2024-01-30T10:57:09;7.10;99.90
11591;DHT22;5851;54.050;9.974;2024-01-30T10:59:38;7.10;99.90
11591;DHT22;5851;54.050;9.974;2024-01-30T11:02:06;7.20;99.90
11591;DHT22;5851;54.050;9.974;2024-01-30T11:04:36;7.20;99.90
11591;DHT22;5851;54.050;9.974;2024-01-30T11:07:13;7.20;99.90
11591;DHT22;5851;54.050;9.974;2024-01-30T11:09:48;7.30;99.90
11591;DHT22;5851;54.050;9.974;2024-01-30T11:12:16;7.50;99.90
11591;DHT22;5851;54.050;9.974;2024-01-30T11:14:48;7.50;99.90
11591;DHT22;5851;54.050;9.974;2024-01-30T11:17:14;7.50;99.90
11591;DHT22;5851;54.050;9.974;2024-01-30T11:19:41;7.50;99.90
11591;DHT22;5851;54.050;9.974;2024-01-30T11:22:08;7.40;99.90
11591;DHT22;5851;54.050;9.974;2024-01-30T11:24:43;7.50;99.90
11591;DHT22;5851;54.050;9.974;2024-01-30T11:27:10;7.50;99.90
11591;DHT22;5851;54.050;9.974;2024-01-30T11:29:37;7.60;99.90
11591;DHT22;5851;54.050;9.974;2024-01-30T11:32:04;7.70;99.90
11591;DHT22;5851;54.050;9.974;2024-01-30T11:34:32;7.60;99.90
11591;DHT22;5851;54.050;9.974;2024-01-30T11:37:03;7.60;99.90
11591;DHT22;5851;54.050;9.974;2024-01-30T11:39:36;7.60;99.90
11591;DHT22;5851;54.050;9.974;2024-01-30T11:42:07;7.60;99.90
11591;DHT22;5851;54.050;9.974;2024-01-30T11:44:35;7.60;99.90
11591;DHT22;5851;54.050;9.974;2024-01-30T11:47:03;7.70;99.90
11591;DHT22;5851;54.050;9.974;2024-01-30T11:49:30;7.70;99.90
11591;DHT22;5851;54.050;9.974;2024-01-30T11:51:57;7.60;99.90
11591;DHT22;5851;54.050;9.974;2024-01-30T11:54:24;7.70;99.90
11591;DHT22;5851;54.050;9.974;2024-01-30T11:56:51;7.70;99.90
11591;DHT22;5851;54.050;9.974;2024-01-30T11:59:19;7.60;99.90
11591;DHT22;5851;54.050;9.974;2024-01-30T12:01:46;7.70;99.90
11591;DHT22;5851;54.050;9.974;2024-01-30T12:04:13;7.80;99.90
11591;DHT22;5851;54.050;9.974;2024-01-30T12:06:40;7.80;99.90
11591;DHT22;5851;54.050;9.974;2024-01-30T12:09:08;7.80;99.90
11591;DHT22;5851;54.050;9.974;2024-01-30T12:11:44;7.90;99.90
11591;DHT22;5851;54.050;9.974;2024-01-30T12:14:12;7.90;99.90
11591;DHT22;5851;54.050;9.974;2024-01-30T12:16:40;7.80;99.90
11591;DHT22;5851;54.050;9.974;2024-01-30T12:19:08;7.80;99.90
11591;DHT22;5851;54.050;9.974;2024-01-30T12:21:35;7.80;99.90
11591;DHT22;5851;54.050;9.974;2024-01-30T12:24:02;7.90;99.90
11591;DHT22;5851;54.050;9.974;2024-01-30T12:26:29;7.90;99.90
11591;DHT22;5851;54.050;9.974;2024-01-30T12:28:56;7.90;99.90
11591;DHT22;5851;54.050;9.974;2024-01-30T12:31:28;8.00;99.90
11591;DHT22;5851;54.050;9.974;2024-01-30T12:33:58;8.00;99.90
11591;DHT22;5851;54.050;9.974;2024-01-30T12:36:26;7.90;99.90
11591;DHT22;5851;54.050;9.974;2024-01-30T12:38:53;8.00;99.90
11591;DHT22;5851;54.050;9.974;2024-01-30T12:41:20;8.00;99.90
11591;DHT22;5851;54.050;9.974;2024-01-30T12:43:47;8.00;99.90
11591;DHT22;5851;54.050;9.974;2024-01-30T12:46:17;8.00;99.90
11591;DHT22;5851;54.050;9.974;2024-01-30T12:48:43;7.90;99.90
11591;DHT22;5851;54.050;9.974;2024-01-30T12:51:12;8.00;99.90
11591;DHT22;5851;54.050;9.974;2024-01-30T12:53:39;8.10;99.90
11591;DHT22;5851;54.050;9.974;2024-01-30T12:56:06;8.10;99.90
11591;DHT22;5851;54.050;9.974;2024-01-30T12:58:33;8.10;99.90
11591;DHT22;5851;54.050;9.974;2024-01-30T13:01:00;8.00;99.90
11591;DHT22;5851;54.050;9.974;2024-01-30T13:03:27;8.00;99.90
11591;DHT22;5851;54.050;9.974;2024-01-30T13:05:54;8.10;99.90
11591;DHT22;5851;54.050;9.974;2024-01-30T13:08:23;8.10;99.90
11591;DHT22;5851;54.050;9.974;2024-01-30T13:10:50;8.10;99.90
11591;DHT22;5851;54.050;9.974;2024-01-30T13:13:17;8.10;99.90
11591;DHT22;5851;54.050;9.974;2024-01-30T13:15:44;8.10;99.90
11591;DHT22;5851;54.050;9.974;2024-01-30T13:18:10;8.10;99.90
11591;DHT22;5851;54.050;9.974;2024-01-30T13:20:37;8.10;99.90
11591;DHT22;5851;54.050;9.974;2024-01-30T13:23:04;8.00;99.90
11591;DHT22;5851;54.050;9.974;2024-01-30T13:25:33;8.10;99.90
11591;DHT22;5851;54.050;9.974;2024-01-30T13:27:59;8.10;99.90
11591;DHT22;5851;54.050;9.974;2024-01-30T13:30:27;8.10;99.90
11591;DHT22;5851;54.050;9.974;2024-01-30T13:32:54;8.10;99.90
11591;DHT22;5851;54.050;9.974;2024-01-30T13:35:21;8.10;99.90
11591;DHT22;5851;54.050;9.974;2024-01-30T13:37:48;8.10;99.90
11591;DHT22;5851;54.050;9.974;2024-01-30T13:40:15;8.10;99.90
11591;DHT22;5851;54.050;9.974;2024-01-30T13:42:43;8.10;99.90
11591;DHT22;5851;54.050;9.974;2024-01-30T13:45:10;8.10;99.90
11591;DHT22;5851;54.050;9.974;2024-01-30T13:47:37;8.10;99.90
11591;DHT22;5851;54.050;9.974;2024-01-30T13:50:05;8.20;99.90
11591;DHT22;5851;54.050;9.974;2024-01-30T13:52:32;8.10;99.90
11591;DHT22;5851;54.050;9.974;2024-01-30T13:54:59;8.10;99.90
11591;DHT22;5851;54.050;9.974;2024-01-30T13:57:25;8.10;99.90
11591;DHT22;5851;54.050;9.974;2024-01-30T13:59:54;8.20;99.90
11591;DHT22;5851;54.050;9.974;2024-01-30T14:02:21;8.20;99.90
11591;DHT22;5851;54.050;9.974;2024-01-30T14:04:48;8.20;99.90
11591;DHT22;5851;54.050;9.974;2024-01-30T14:07:15;8.20;99.90
11591;DHT22;5851;54.050;9.974;2024-01-30T14:09:44;8.20;99.90
11591;DHT22;5851;54.050;9.974;2024-01-30T14:12:11;8.20;99.90
11591;DHT22;5851;54.050;9.974;2024-01-30T14:14:38;8.20;99.90
11591;DHT22;5851;54.050;9.974;2024-01-30T14:17:06;8.30;99.90
11591;DHT22;5851;54.050;9.974;2024-01-30T14:19:33;8.30;99.90
11591;DHT22;5851;54.050;9.974;2024-01-30T14:22:01;8.30;99.90
11591;DHT22;5851;54.050;9.974;2024-01-30T14:24:28;8.40;99.90
11591;DHT22;5851;54.050;9.974;2024-01-30T14:26:55;8.40;99.90
11591;DHT22;5851;54.050;9.974;2024-01-30T14:29:22;8.40;99.90
11591;DHT22;5851;54.050;9.974;2024-01-30T14:31:49;8.40;99.90
11591;DHT22;5851;54.050;9.974;2024-01-30T14:34:17;8.40;99.90
11591;DHT22;5851;54.050;9.974;2024-01-30T14:36:44;8.40;99.90
11591;DHT22;5851;54.050;9.974;2024-01-30T14:39:11;8.40;99.90
11591;DHT22;5851;54.050;9.974;2024-01-30T14:41:38;8.30;99.90
11591;DHT22;5851;54.050;9.974;2024-01-30T14:44:05;8.40;99.90
11591;DHT22;5851;54.050;9.974;2024-01-30T14:46:33;8.40;99.90
11591;DHT22;5851;54.050;9.974;2024-01-30T14:49:01;8.50;99.90
11591;DHT22;5851;54.050;9.974;2024-01-30T14:51:32;8.40;99.90
11591;DHT22;5851;54.050;9.974;2024-01-30T14:53:59;8.50;99.90
11591;DHT22;5851;54.050;9.974;2024-01-30T14:56:27;8.50;99.90
11591;DHT22;5851;54.050;9.974;2024-01-30T14:58:54;8.50;99.90
11591;DHT22;5851;54.050;9.974;2024-01-30T15:01:21;8.50;99.90
11591;DHT22;5851;54.050;9.974;2024-01-30T15:03:48;8.50;99.90
11591;DHT22;5851;54.050;9.974;2024-01-30T15:06:17;8.50;99.90
11591;DHT22;5851;54.050;9.974;2024-01-30T15:08:45;8.50;99.90
11591;DHT22;5851;54.050;9.974;2024-01-30T15:11:12;8.50;99.90
11591;DHT22;5851;54.050;9.974;2024-01-30T15:13:39;8.50;99.90
11591;DHT22;5851;54.050;9.974;2024-01-30T15:16:06;8.50;99.90
11591;DHT22;5851;54.050;9.974;2024-01-30T15:18:34;8.50;99.90
11591;DHT22;5851;54.050;9.974;2024-01-30T15:21:01;8.50;99.90
11591;DHT22;5851;54.050;9.974;2024-01-30T15:23:28;8.50;99.90
11591;DHT22;5851;54.050;9.974;2024-01-30T15:25:56;8.50;99.90
11591;DHT22;5851;54.050;9.974;2024-01-30T15:28:34;8.50;99.90
11591;DHT22;5851;54.050;9.974;2024-01-30T15:31:02;8.50;99.90
11591;DHT22;5851;54.050;9.974;2024-01-30T15:33:29;8.50;99.90
11591;DHT22;5851;54.050;9.974;2024-01-30T15:35:56;8.50;99.90
11591;DHT22;5851;54.050;9.974;2024-01-30T15:38:23;8.40;99.90
11591;DHT22;5851;54.050;9.974;2024-01-30T15:40:50;8.50;99.90
11591;DHT22;5851;54.050;9.974;2024-01-30T15:43:18;8.60;99.90
11591;DHT22;5851;54.050;9.974;2024-01-30T15:45:45;8.60;99.90
11591;DHT22;5851;54.050;9.974;2024-01-30T15:48:12;8.60;99.90
11591;DHT22;5851;54.050;9.974;2024-01-30T15:50:39;8.60;99.90
11591;DHT22;5851;54.050;9.974;2024-01-30T15:53:06;8.60;99.90
11591;DHT22;5851;54.050;9.974;2024-01-30T15:55:33;8.60;99.90
11591;DHT22;5851;54.050;9.974;2024-01-30T15:58:00;8.60;99.90
11591;DHT22;5851;54.050;9.974;2024-01-30T16:00:28;8.50;99.90
11591;DHT22;5851;54.050;9.974;2024-01-30T16:02:56;8.50;99.90